createdAt,value
2019-05-20T00:02:31.229Z,14.82
2019-05-20T00:05:05.336Z,14.82
2019-05-20T00:07:37.459Z,14.82
2019-05-20T00:10:09.739Z,14.78
2019-05-20T00:12:41.764Z,14.78
2019-05-20T00:15:13.726Z,14.79
2019-05-20T00:17:45.717Z,14.79
2019-05-20T00:20:17.896Z,14.83
2019-05-20T00:22:49.895Z,14.87
2019-05-20T00:25:21.868Z,14.91
2019-05-20T00:27:53.867Z,14.92
2019-05-20T00:30:25.869Z,15.04
2019-05-20T00:32:57.877Z,15.06
2019-05-20T00:35:30.228Z,15.19
2019-05-20T00:38:02.221Z,15.31
2019-05-20T00:40:34.159Z,15.41
2019-05-20T00:43:06.241Z,15.52
2019-05-20T00:45:38.337Z,15.59
2019-05-20T00:48:10.301Z,15.61
2019-05-20T00:50:42.479Z,15.60
2019-05-20T00:53:14.449Z,15.56
2019-05-20T00:55:46.479Z,15.51
2019-05-20T00:58:18.455Z,15.47
2019-05-20T01:00:50.775Z,15.42
2019-05-20T01:03:22.759Z,15.36
2019-05-20T01:05:54.751Z,15.28
2019-05-20T01:08:26.719Z,15.23
2019-05-20T01:10:58.771Z,15.21
2019-05-20T01:13:30.900Z,15.22
2019-05-20T01:16:02.843Z,15.28
2019-05-20T01:18:34.839Z,15.28
2019-05-20T01:21:06.804Z,15.31
2019-05-20T01:23:38.766Z,15.30
2019-05-20T01:26:11.101Z,15.38
2019-05-20T01:28:43.069Z,15.38
2019-05-20T01:31:15.070Z,15.45
2019-05-20T01:33:47.097Z,15.42
2019-05-20T01:36:19.039Z,15.38
2019-05-20T01:38:51.350Z,15.33
2019-05-20T01:41:23.336Z,15.27
2019-05-20T01:43:55.345Z,15.24
2019-05-20T01:46:27.409Z,15.28
2019-05-20T01:48:59.431Z,15.31
2019-05-20T01:51:31.393Z,15.27
2019-05-20T01:54:03.363Z,15.35
2019-05-20T01:56:35.355Z,15.47
2019-05-20T01:59:07.296Z,15.58
2019-05-20T02:01:39.328Z,15.69
2019-05-20T02:04:11.369Z,15.75
2019-05-20T02:06:43.334Z,15.76
2019-05-20T02:09:15.355Z,15.79
2019-05-20T02:11:47.287Z,15.85
2019-05-20T02:14:22.537Z,15.90
2019-05-20T02:16:54.583Z,15.95
2019-05-20T02:19:26.605Z,15.95
2019-05-20T02:21:58.570Z,15.83
2019-05-20T02:24:30.969Z,15.70
2019-05-20T02:27:02.940Z,15.64
2019-05-20T02:29:34.887Z,15.57
2019-05-20T02:32:06.835Z,15.48
2019-05-20T02:34:38.821Z,15.42
2019-05-20T02:37:10.765Z,15.40
2019-05-20T02:39:42.783Z,15.37
2019-05-20T02:42:14.759Z,15.38
2019-05-20T02:44:46.754Z,15.38
2019-05-20T02:47:18.804Z,15.47
2019-05-20T02:49:51.183Z,15.56
2019-05-20T02:52:23.263Z,15.68
2019-05-20T02:54:55.216Z,15.80
2019-05-20T02:57:27.213Z,15.87
2019-05-20T02:59:59.141Z,15.95
2019-05-20T03:02:31.302Z,16.05
2019-05-20T03:05:03.280Z,16.11
2019-05-20T03:07:35.302Z,16.12
2019-05-20T03:10:07.497Z,16.15
2019-05-20T03:12:39.502Z,16.15
2019-05-20T03:15:11.663Z,16.18
2019-05-20T03:17:43.738Z,16.23
2019-05-20T03:20:15.753Z,16.20
2019-05-20T03:22:47.770Z,16.29
2019-05-20T03:25:19.727Z,16.33
2019-05-20T03:27:51.717Z,16.17
2019-05-20T03:30:23.717Z,16.01
2019-05-20T03:32:55.723Z,15.97
2019-05-20T03:35:27.674Z,15.97
2019-05-20T03:37:59.914Z,15.82
2019-05-20T03:40:31.976Z,15.76
2019-05-20T03:43:04.047Z,15.74
2019-05-20T03:45:36.048Z,15.67
2019-05-20T03:48:08.058Z,15.58
2019-05-20T03:50:40.370Z,15.50
2019-05-20T03:53:12.327Z,15.55
2019-05-20T03:55:45.198Z,15.56
2019-05-20T03:58:17.168Z,15.67
2019-05-20T04:00:49.971Z,15.76
2019-05-20T04:03:22.018Z,15.82
2019-05-20T04:05:54.090Z,15.94
2019-05-20T04:08:26.161Z,16.11
2019-05-20T04:10:58.150Z,16.23
2019-05-20T04:13:33.988Z,16.50
2019-05-20T04:16:03.877Z,16.90
2019-05-20T04:18:35.917Z,17.28
2019-05-20T04:21:07.916Z,17.58
2019-05-20T04:23:40.871Z,17.94
2019-05-20T04:26:12.975Z,18.24
2019-05-20T04:28:44.956Z,18.59
2019-05-20T04:31:16.960Z,18.94
2019-05-20T04:33:49.056Z,18.81
2019-05-20T04:36:21.326Z,18.66
2019-05-20T04:38:56.454Z,18.37
2019-05-20T04:41:28.451Z,18.03
2019-05-20T04:44:00.417Z,17.80
2019-05-20T04:46:32.510Z,17.62
2019-05-20T04:49:04.485Z,17.49
2019-05-20T04:51:36.448Z,17.46
2019-05-20T04:54:08.512Z,17.52
2019-05-20T04:56:40.763Z,17.67
2019-05-20T04:59:12.797Z,17.78
2019-05-20T05:01:44.773Z,17.88
2019-05-20T05:04:16.805Z,18.08
2019-05-20T05:06:48.833Z,18.35
2019-05-20T05:09:21.177Z,18.51
2019-05-20T05:11:53.183Z,18.77
2019-05-20T05:14:25.214Z,19.28
2019-05-20T05:16:57.185Z,19.73
2019-05-20T05:19:29.238Z,20.19
2019-05-20T05:22:01.363Z,20.60
2019-05-20T05:24:33.439Z,20.62
2019-05-20T05:27:05.437Z,20.28
2019-05-20T05:29:37.622Z,19.95
2019-05-20T05:32:09.681Z,19.83
2019-05-20T05:34:41.708Z,19.81
2019-05-20T05:37:13.803Z,19.98
2019-05-20T05:39:45.893Z,20.06
2019-05-20T05:42:17.967Z,20.10
2019-05-20T05:44:50.246Z,20.59
2019-05-20T05:47:22.237Z,21.68
2019-05-20T05:49:54.764Z,22.52
2019-05-20T05:52:26.879Z,22.00
2019-05-20T05:54:58.854Z,21.53
2019-05-20T05:57:31.226Z,21.27
2019-05-20T06:00:03.344Z,21.24
2019-05-20T06:02:35.410Z,21.10
2019-05-20T06:05:07.628Z,20.69
2019-05-20T06:07:40.308Z,20.38
2019-05-20T06:10:12.729Z,20.18
2019-05-20T06:12:44.752Z,19.91
2019-05-20T06:15:17.930Z,19.48
2019-05-20T06:17:49.957Z,19.26
2019-05-20T06:20:22.009Z,19.28
2019-05-20T06:22:54.008Z,19.10
2019-05-20T06:25:26.019Z,19.10
2019-05-20T06:27:58.099Z,19.03
2019-05-20T06:30:45.801Z,19.09
2019-05-20T06:33:17.833Z,19.66
2019-05-20T06:35:50.411Z,20.94
2019-05-20T06:38:42.107Z,23.21
2019-05-20T06:41:14.066Z,28.21
2019-05-20T06:43:46.059Z,34.11
2019-05-20T06:46:18.146Z,37.82
2019-05-20T06:48:50.148Z,34.76
2019-05-20T06:51:22.177Z,33.15
2019-05-20T06:53:54.262Z,32.13
2019-05-20T06:56:26.261Z,28.98
2019-05-20T06:58:58.281Z,29.11
2019-05-20T07:01:30.277Z,26.60
2019-05-20T07:04:02.328Z,25.89
2019-05-20T07:06:46.155Z,32.06
2019-05-20T07:09:08.799Z,31.85
2019-05-20T07:11:51.918Z,31.81
2019-05-20T07:14:14.749Z,36.74
2019-05-20T07:16:46.752Z,39.81
2019-05-20T07:19:18.777Z,44.78
2019-05-20T07:21:51.146Z,46.07
2019-05-20T07:24:23.105Z,43.22
2019-05-20T07:26:55.068Z,47.40
2019-05-20T07:29:27.048Z,46.19
2019-05-20T07:31:59.062Z,41.34
2019-05-20T07:34:31.089Z,45.86
2019-05-20T07:37:04.153Z,49.24
2019-05-20T07:39:36.416Z,51.06
2019-05-20T07:42:08.433Z,49.38
2019-05-20T07:44:40.899Z,47.25
2019-05-20T07:47:13.165Z,49.15
2019-05-20T07:49:45.555Z,42.71
2019-05-20T07:52:17.633Z,46.45
2019-05-20T07:54:51.479Z,52.15
2019-05-20T07:57:26.467Z,51.82
2019-05-20T07:59:59.321Z,47.20
2019-05-20T08:02:31.897Z,42.59
2019-05-20T08:05:04.095Z,39.40
2019-05-20T08:07:51.111Z,37.41
2019-05-20T08:10:10.751Z,40.32
2019-05-20T08:12:42.783Z,37.87
2019-05-20T08:15:14.964Z,33.89
2019-05-20T08:17:47.015Z,33.34
2019-05-20T08:20:19.651Z,31.50
2019-05-20T08:22:51.799Z,30.47
2019-05-20T08:25:23.806Z,30.19
2019-05-20T08:27:55.770Z,29.92
2019-05-20T08:30:36.616Z,29.37
2019-05-20T08:33:09.155Z,28.70
2019-05-20T08:35:41.131Z,28.88
2019-05-20T08:38:13.116Z,30.64
2019-05-20T08:40:48.598Z,31.25
2019-05-20T08:43:18.807Z,33.07
2019-05-20T08:45:51.065Z,36.23
2019-05-20T08:48:23.069Z,35.20
2019-05-20T08:50:55.103Z,33.41
2019-05-20T08:53:27.154Z,33.46
2019-05-20T08:55:59.172Z,33.20
2019-05-20T08:58:31.212Z,35.58
2019-05-20T09:01:03.483Z,38.02
2019-05-20T09:03:35.688Z,38.35
2019-05-20T09:06:07.647Z,38.57
2019-05-20T09:08:40.303Z,42.58
2019-05-20T09:11:12.330Z,42.68
2019-05-20T09:13:44.415Z,47.09
2019-05-20T09:16:16.494Z,49.95
2019-05-20T09:18:48.415Z,49.56
2019-05-20T09:21:20.342Z,46.19
2019-05-20T09:23:52.365Z,44.57
2019-05-20T09:26:24.309Z,43.22
2019-05-20T09:28:56.323Z,41.28
2019-05-20T09:31:28.315Z,40.45
2019-05-20T09:34:00.334Z,39.16
2019-05-20T09:36:32.408Z,37.95
2019-05-20T09:39:05.708Z,38.33
2019-05-20T09:41:37.670Z,38.47
2019-05-20T09:44:10.197Z,40.36
2019-05-20T09:46:42.183Z,43.99
2019-05-20T09:49:14.149Z,46.42
2019-05-20T09:51:46.135Z,43.86
2019-05-20T09:54:18.101Z,40.46
2019-05-20T09:56:50.101Z,37.90
2019-05-20T09:59:22.265Z,35.95
2019-05-20T10:01:54.375Z,34.39
2019-05-20T10:04:26.409Z,33.57
2019-05-20T10:06:58.402Z,33.33
2019-05-20T10:09:30.684Z,32.37
2019-05-20T10:12:02.797Z,31.90
2019-05-20T10:14:34.873Z,32.21
2019-05-20T10:17:06.916Z,33.09
2019-05-20T10:19:38.920Z,32.99
2019-05-20T10:22:11.289Z,31.97
2019-05-20T10:24:43.303Z,31.30
2019-05-20T10:27:15.251Z,30.82
2019-05-20T10:29:47.280Z,30.69
2019-05-20T10:32:19.273Z,30.72
2019-05-20T10:34:51.383Z,30.75
2019-05-20T10:37:23.386Z,31.24
2019-05-20T10:39:55.389Z,30.70
2019-05-20T10:42:27.378Z,31.09
2019-05-20T10:44:59.389Z,32.64
2019-05-20T10:47:31.380Z,35.83
2019-05-20T10:50:03.389Z,39.02
2019-05-20T10:52:35.369Z,41.27
2019-05-20T10:55:08.114Z,44.89
2019-05-20T10:57:40.478Z,46.08
2019-05-20T11:00:14.011Z,46.61
2019-05-20T11:02:46.043Z,50.19
2019-05-20T11:05:19.429Z,53.92
2019-05-20T11:09:49.369Z,57.30
2019-05-20T11:27:49.747Z,50.30
2019-05-20T11:30:22.047Z,47.14
2019-05-20T11:32:54.020Z,45.28
2019-05-20T11:35:26.038Z,43.93
2019-05-20T11:37:58.057Z,42.38
2019-05-20T11:40:30.443Z,40.15
2019-05-20T11:43:02.456Z,38.49
2019-05-20T11:45:34.582Z,36.56
2019-05-20T11:48:06.629Z,34.74
2019-05-20T11:50:38.633Z,33.66
2019-05-20T11:53:10.663Z,32.43
2019-05-20T11:55:42.702Z,31.43
2019-05-20T11:58:16.365Z,30.85
2019-05-20T12:00:48.612Z,30.43
2019-05-20T12:03:20.992Z,30.72
2019-05-20T12:05:53.073Z,31.02
2019-05-20T12:08:25.120Z,31.34
2019-05-20T12:10:57.088Z,31.43
2019-05-20T12:13:29.134Z,31.81
2019-05-20T12:16:01.228Z,32.20
2019-05-20T12:18:33.337Z,32.94
2019-05-20T12:21:05.332Z,33.00
2019-05-20T12:23:37.308Z,32.56
2019-05-20T12:26:09.333Z,31.99
2019-05-20T12:28:41.391Z,31.94
2019-05-20T12:31:13.387Z,31.81
2019-05-20T12:33:45.373Z,31.70
2019-05-20T12:36:17.412Z,31.37
2019-05-20T12:38:49.385Z,30.86
2019-05-20T12:41:21.404Z,30.61
2019-05-20T12:44:10.861Z,30.47
2019-05-20T12:46:27.313Z,30.18
2019-05-20T12:49:00.093Z,29.90
2019-05-20T12:51:32.146Z,29.71
2019-05-20T12:54:04.173Z,29.82
2019-05-20T12:56:36.200Z,30.11
2019-05-20T12:59:08.155Z,30.28
2019-05-20T13:01:40.535Z,30.50
2019-05-20T13:04:12.627Z,30.65
2019-05-20T13:06:44.587Z,30.86
2019-05-20T13:09:16.629Z,31.21
2019-05-20T13:11:48.581Z,31.23
2019-05-20T13:14:20.564Z,31.25
2019-05-20T13:16:52.585Z,31.26
2019-05-20T13:19:24.925Z,31.18
2019-05-20T13:21:57.040Z,30.85
2019-05-20T13:24:29.056Z,30.87
2019-05-20T13:27:01.201Z,30.89
2019-05-20T13:29:33.255Z,30.85
2019-05-20T13:32:05.244Z,30.75
2019-05-20T13:34:37.277Z,30.84
2019-05-20T13:37:09.228Z,30.91
2019-05-20T13:39:41.449Z,30.80
2019-05-20T13:42:13.416Z,30.69
2019-05-20T13:44:45.447Z,30.57
2019-05-20T13:47:17.454Z,30.62
2019-05-20T13:49:49.413Z,30.81
2019-05-20T13:52:21.499Z,31.06
2019-05-20T13:54:53.605Z,31.21
2019-05-20T13:57:25.593Z,31.25
2019-05-20T13:59:57.819Z,31.30
2019-05-20T14:02:29.938Z,31.11
2019-05-20T14:05:02.113Z,31.08
2019-05-20T14:07:34.164Z,31.10
2019-05-20T14:10:07.427Z,31.03
2019-05-20T14:12:39.462Z,30.96
2019-05-20T14:15:11.702Z,30.81
2019-05-20T14:17:43.737Z,30.74
2019-05-20T14:20:16.890Z,30.70
2019-05-20T14:22:49.071Z,30.53
2019-05-20T14:25:21.354Z,30.54
2019-05-20T14:27:53.298Z,30.82
2019-05-20T14:30:25.260Z,30.84
2019-05-20T14:32:57.339Z,30.36
2019-05-20T14:35:30.014Z,30.19
2019-05-20T14:38:02.012Z,29.72
2019-05-20T14:40:33.961Z,29.14
2019-05-20T14:43:05.943Z,28.51
2019-05-20T14:45:37.933Z,27.99
2019-05-20T14:48:10.206Z,27.60
2019-05-20T14:50:42.446Z,27.21
2019-05-20T14:53:14.466Z,26.73
2019-05-20T14:55:46.408Z,26.41
2019-05-20T14:58:18.459Z,26.29
2019-05-20T15:00:50.674Z,26.43
2019-05-20T15:03:22.738Z,26.69
2019-05-20T15:05:54.871Z,26.74
2019-05-20T15:08:28.086Z,26.41
2019-05-20T15:11:00.084Z,25.75
2019-05-20T15:13:32.200Z,25.19
2019-05-20T15:16:04.189Z,24.54
2019-05-20T15:18:39.039Z,24.50
2019-05-20T15:21:12.902Z,24.55
2019-05-20T15:23:44.885Z,24.66
2019-05-20T15:26:16.925Z,24.73
2019-05-20T15:28:48.916Z,24.75
2019-05-20T15:31:21.287Z,24.68
2019-05-20T15:33:53.539Z,24.65
2019-05-20T15:36:25.653Z,24.49
2019-05-20T15:38:57.688Z,24.19
2019-05-20T15:41:29.982Z,23.87
2019-05-20T15:44:02.533Z,23.64
2019-05-20T15:46:34.551Z,23.49
2019-05-20T15:49:06.618Z,23.37
2019-05-20T15:51:38.629Z,23.31
2019-05-20T15:54:10.894Z,23.38
2019-05-20T15:56:42.964Z,23.32
2019-05-20T15:59:15.057Z,23.10
2019-05-20T16:01:47.134Z,22.86
2019-05-20T16:04:19.075Z,22.76
2019-05-20T16:06:51.128Z,22.80
2019-05-20T16:09:23.541Z,22.91
2019-05-20T16:11:55.580Z,23.16
2019-05-20T16:14:27.615Z,23.41
2019-05-20T16:16:59.946Z,23.42
2019-05-20T16:19:31.982Z,23.52
2019-05-20T16:22:04.093Z,23.47
2019-05-20T16:24:36.136Z,23.36
2019-05-20T16:27:08.121Z,23.22
2019-05-20T16:29:40.781Z,23.10
2019-05-20T16:32:12.993Z,23.07
2019-05-20T16:34:44.953Z,23.11
2019-05-20T16:37:17.026Z,23.06
2019-05-20T16:39:49.239Z,23.11
2019-05-20T16:42:21.369Z,23.24
2019-05-20T16:44:53.668Z,23.38
2019-05-20T16:47:25.841Z,23.48
2019-05-20T16:49:57.896Z,23.55
2019-05-20T16:52:30.082Z,23.56
2019-05-20T16:55:02.395Z,23.46
2019-05-20T16:57:34.442Z,23.35
2019-05-20T17:00:16.171Z,23.24
2019-05-20T17:02:41.142Z,23.11
2019-05-20T17:05:13.504Z,23.02
2019-05-20T17:07:45.500Z,22.92
2019-05-20T17:10:18.262Z,22.78
2019-05-20T17:12:50.493Z,22.68
2019-05-20T17:15:22.509Z,22.51
2019-05-20T17:17:54.474Z,22.36
2019-05-20T17:20:26.436Z,22.28
2019-05-20T17:22:58.398Z,22.19
2019-05-20T17:25:30.417Z,22.12
2019-05-20T17:28:02.435Z,22.04
2019-05-20T17:30:44.910Z,21.96
2019-05-20T17:33:08.068Z,21.94
2019-05-20T17:35:40.811Z,21.82
2019-05-20T17:38:12.811Z,21.83
2019-05-20T17:40:45.234Z,21.75
2019-05-20T17:43:20.020Z,21.60
2019-05-20T17:45:51.257Z,21.50
2019-05-20T17:48:23.386Z,21.37
2019-05-20T17:50:55.473Z,21.29
2019-05-20T17:53:27.449Z,21.19
2019-05-20T17:55:59.459Z,21.14
2019-05-20T17:58:31.443Z,21.08
2019-05-20T18:01:14.940Z,20.97
2019-05-20T18:03:37.241Z,20.87
2019-05-20T18:06:09.226Z,20.88
2019-05-20T18:08:44.487Z,20.78
2019-05-20T18:11:19.215Z,20.71
2019-05-20T18:13:50.411Z,20.66
2019-05-20T18:16:22.426Z,20.59
2019-05-20T18:18:54.405Z,20.53
2019-05-20T18:21:26.394Z,20.54
2019-05-20T18:23:58.378Z,20.53
2019-05-20T18:26:30.644Z,20.43
2019-05-20T18:29:02.608Z,20.30
2019-05-20T18:31:34.690Z,20.20
2019-05-20T18:34:06.733Z,20.08
2019-05-20T18:36:38.739Z,20.03
2019-05-20T18:39:11.137Z,19.95
2019-05-20T18:41:43.146Z,19.81
2019-05-20T18:44:15.154Z,19.74
2019-05-20T18:46:47.210Z,19.64
2019-05-20T18:49:19.190Z,19.58
2019-05-20T18:51:51.125Z,19.48
2019-05-20T18:54:23.133Z,19.42
2019-05-20T18:56:55.062Z,19.36
2019-05-20T18:59:27.094Z,19.28
2019-05-20T19:02:04.980Z,19.18
2019-05-20T19:04:32.758Z,19.12
2019-05-20T19:07:04.819Z,19.13
2019-05-20T19:09:36.776Z,19.12
2019-05-20T19:12:09.159Z,19.13
2019-05-20T19:14:41.256Z,19.12
2019-05-20T19:17:13.236Z,19.11
2019-05-20T19:19:45.237Z,19.19
2019-05-20T19:22:17.294Z,19.31
2019-05-20T19:24:49.266Z,19.33
2019-05-20T19:27:21.256Z,19.32
2019-05-20T19:29:53.243Z,19.32
2019-05-20T19:32:25.334Z,19.33
2019-05-20T19:34:57.349Z,19.22
2019-05-20T19:37:29.526Z,19.11
2019-05-20T19:40:01.585Z,18.99
2019-05-20T19:42:33.630Z,18.91
2019-05-20T19:45:06.839Z,18.79
2019-05-20T19:47:38.838Z,18.71
2019-05-20T19:50:11.840Z,18.67
2019-05-20T19:52:43.887Z,18.59
2019-05-20T19:55:18.759Z,18.49
2019-05-20T19:57:50.355Z,18.47
2019-05-20T20:00:22.433Z,18.35
2019-05-20T20:02:54.433Z,18.25
2019-05-20T20:05:26.405Z,18.24
2019-05-20T20:07:58.440Z,18.21
2019-05-20T20:10:30.436Z,18.18
2019-05-20T20:13:02.440Z,18.08
2019-05-20T20:15:34.418Z,18.07
2019-05-20T20:18:06.407Z,18.05
2019-05-20T20:20:38.396Z,18.03
2019-05-20T20:23:10.421Z,17.94
2019-05-20T20:25:42.471Z,17.85
2019-05-20T20:28:14.467Z,17.81
2019-05-20T20:30:46.454Z,17.72
2019-05-20T20:33:18.552Z,17.70
2019-05-20T20:35:50.792Z,17.67
2019-05-20T20:38:22.808Z,17.61
2019-05-20T20:40:54.790Z,17.51
2019-05-20T20:43:26.793Z,17.47
2019-05-20T20:45:58.829Z,17.45
2019-05-20T20:48:30.788Z,17.47
2019-05-20T20:51:02.926Z,17.42
2019-05-20T20:53:34.926Z,17.41
2019-05-20T20:56:06.922Z,17.31
2019-05-20T20:58:38.924Z,17.31
2019-05-20T21:01:10.920Z,17.24
2019-05-20T21:03:42.864Z,17.19
2019-05-20T21:06:14.876Z,17.11
2019-05-20T21:08:46.856Z,17.08
2019-05-20T21:11:18.858Z,16.99
2019-05-20T21:13:51.176Z,16.91
2019-05-20T21:16:23.286Z,16.85
2019-05-20T21:18:55.197Z,16.80
2019-05-20T21:21:27.190Z,16.74
2019-05-20T21:23:59.306Z,16.71
2019-05-20T21:26:31.346Z,16.68
2019-05-20T21:29:03.286Z,16.62
2019-05-20T21:31:35.351Z,16.62
2019-05-20T21:34:07.337Z,16.65
2019-05-20T21:36:47.587Z,16.71
2019-05-20T21:39:12.990Z,16.76
2019-05-20T21:41:45.078Z,16.77
2019-05-20T21:44:17.050Z,16.77
2019-05-20T21:46:49.002Z,16.80
2019-05-20T21:49:21.250Z,16.81
2019-05-20T21:51:53.218Z,16.94
2019-05-20T21:54:25.177Z,17.08
2019-05-20T21:56:57.175Z,17.14
2019-05-20T21:59:29.141Z,17.16
2019-05-20T22:02:01.235Z,17.18
2019-05-20T22:04:33.188Z,17.17
2019-05-20T22:07:05.180Z,17.14
2019-05-20T22:09:37.247Z,17.11
2019-05-20T22:12:09.276Z,17.08
2019-05-20T22:14:41.223Z,17.04
2019-05-20T22:17:13.229Z,17.04
2019-05-20T22:19:45.122Z,17.04
2019-05-20T22:22:44.918Z,17.04
2019-05-20T22:25:16.848Z,17.05
2019-05-20T22:27:48.834Z,17.06
2019-05-20T22:30:20.816Z,17.05
2019-05-20T22:32:52.759Z,17.02
2019-05-20T22:35:24.744Z,16.80
2019-05-20T22:37:56.725Z,16.59
2019-05-20T22:40:28.718Z,16.50
2019-05-20T22:43:01.118Z,16.44
2019-05-20T22:45:33.424Z,16.40
2019-05-20T22:48:05.387Z,16.35
2019-05-20T22:50:37.352Z,16.31
2019-05-20T22:53:09.370Z,16.28
2019-05-20T22:55:41.330Z,16.21
2019-05-20T22:58:13.442Z,16.22
2019-05-20T23:00:45.380Z,16.14
2019-05-20T23:03:18.843Z,16.08
2019-05-20T23:05:51.249Z,16.02
2019-05-20T23:08:23.288Z,15.91
2019-05-20T23:10:55.289Z,15.82
2019-05-20T23:13:27.268Z,15.74
2019-05-20T23:15:59.269Z,15.66
2019-05-20T23:18:31.294Z,15.56
2019-05-20T23:21:03.275Z,15.50
2019-05-20T23:23:35.245Z,15.45
2019-05-20T23:26:07.168Z,15.37
2019-05-20T23:28:40.350Z,15.30
2019-05-20T23:31:12.310Z,15.19
2019-05-20T23:33:44.296Z,15.14
2019-05-20T23:36:16.344Z,15.05
2019-05-20T23:38:48.443Z,14.98
2019-05-20T23:41:20.921Z,14.92
2019-05-20T23:43:52.986Z,14.81
2019-05-20T23:46:25.003Z,14.66
2019-05-20T23:48:57.099Z,14.59
2019-05-20T23:51:29.086Z,14.54
2019-05-20T23:54:01.244Z,14.50
2019-05-20T23:56:33.186Z,14.51
2019-05-20T23:59:05.491Z,14.52
